Time;durP1;ratioP1;P1;durP2;ratioP2;P2;SDS_P1;SDS_P2;PMS_P1;PMS_P2;Temp;Humidity;BMP_temperature;BMP_pressure;BME280_temperature;BME280_humidity;BME280_pressure;Samples;Min_cycle;Max_cycle;Signal;HPM_P1;HPM_P2
2022/08/23 00:01:55;;;;;;;4.57;1.88;;;;;;;20.68;64.76;101080.47;5056142;28;20056;-77
2022/08/23 00:04:24;;;;;;;5.32;1.80;;;;;;;20.66;64.76;101082.53;5052996;28;20033;-77
2022/08/23 00:06:52;;;;;;;4.35;1.45;;;;;;;20.62;64.90;101084.78;5055332;28;20071;-76
2022/08/23 00:09:20;;;;;;;4.63;2.15;;;;;;;20.58;65.07;101079.09;5081009;22;20061;-77
2022/08/23 00:11:49;;;;;;;7.40;2.28;;;;;;;20.53;65.02;101083.41;5062318;28;20406;-77
2022/08/23 00:14:27;;;;;;;4.68;1.60;;;;;;;20.47;65.24;101079.78;5057654;28;20131;-77
2022/08/23 00:16:55;;;;;;;5.45;1.63;;;;;;;20.37;65.90;101067.13;5053947;28;20124;-74
2022/08/23 00:19:22;;;;;;;4.63;2.20;;;;;;;20.33;66.47;101071.19;5058908;28;20032;-75
2022/08/23 00:21:50;;;;;;;4.38;2.00;;;;;;;20.30;66.60;101068.19;5058813;28;20116;-75
2022/08/23 00:24:16;;;;;;;4.93;2.33;;;;;;;20.25;67.22;101068.84;5055109;28;20028;-76
2022/08/23 00:26:56;;;;;;;5.35;2.55;;;;;;;20.21;67.50;101065.81;5066948;28;20028;-76
2022/08/23 00:29:24;;;;;;;4.68;2.20;;;;;;;20.16;67.60;101067.50;5067222;28;20028;-77
2022/08/23 00:31:50;;;;;;;6.15;1.90;;;;;;;20.13;67.93;101066.06;5068593;28;20474;-76
2022/08/23 00:34:16;;;;;;;5.25;2.00;;;;;;;20.10;68.14;101070.94;5063146;28;20044;-76
2022/08/23 00:36:43;;;;;;;7.07;1.90;;;;;;;20.08;67.62;101073.00;5062673;28;20683;-76
2022/08/23 00:39:10;;;;;;;6.38;2.42;;;;;;;20.05;67.67;101074.22;5063246;28;20509;-76
2022/08/23 00:41:36;;;;;;;6.15;2.03;;;;;;;20.00;67.52;101080.16;5048049;28;20391;-77
2022/08/23 00:49:39;;;;;;;4.95;2.40;;;;;;;19.86;67.72;101072.53;5063461;28;20028;-76
2022/08/23 00:52:21;;;;;;;4.07;2.15;;;;;;;19.82;68.02;101072.13;5049700;28;20029;-76
2022/08/23 00:54:52;;;;;;;6.50;2.08;;;;;;;19.78;68.26;101071.75;5065358;28;20028;-76
2022/08/23 00:57:19;;;;;;;5.57;2.03;;;;;;;19.72;68.63;101071.75;5049767;28;20032;-79
2022/08/23 00:59:45;;;;;;;5.82;2.13;;;;;;;19.69;68.71;101072.97;5046245;28;20560;-76
2022/08/23 01:02:13;;;;;;;5.65;2.40;;;;;;;19.62;69.00;101069.56;5043159;28;20170;-76
2022/08/23 01:04:58;;;;;;;7.47;2.97;;;;;;;19.47;69.60;101075.09;5066768;28;20077;-77
2022/08/23 01:07:54;;;;;;;7.32;2.47;;;;;;;19.36;70.26;101078.38;5063734;28;20033;-78
2022/08/23 01:10:40;;;;;;;6.20;2.60;;;;;;;19.22;70.74;101078.41;5055534;28;20020;-77
2022/08/23 01:13:18;;;;;;;11.68;2.75;;;;;;;19.20;71.16;101082.25;5051215;28;20108;-76
2022/08/23 01:15:59;;;;;;;5.22;2.63;;;;;;;19.19;71.35;101086.72;5064106;28;20016;-77
2022/08/23 01:18:30;;;;;;;6.25;2.10;;;;;;;19.17;71.24;101083.47;5070904;28;20042;-78
2022/08/23 01:21:05;;;;;;;7.07;2.45;;;;;;;19.17;70.86;101075.56;5059541;28;20056;-77
2022/08/23 01:23:59;;;;;;;5.28;2.17;;;;;;;19.17;70.72;101074.78;5049646;28;20329;-77
2022/08/23 01:26:26;;;;;;;10.90;2.50;;;;;;;19.16;70.51;101079.25;5039913;28;20033;-77
2022/08/23 01:28:53;;;;;;;9.40;3.03;;;;;;;19.15;70.98;101085.50;5065650;28;20098;-76
2022/08/23 01:31:22;;;;;;;6.38;2.63;;;;;;;19.07;71.32;101088.34;5048888;28;20035;-76
2022/08/23 01:33:54;;;;;;;3.78;2.20;;;;;;;18.90;72.22;101087.97;5063332;28;20029;-77
2022/08/23 01:36:20;;;;;;;7.10;2.85;;;;;;;18.78;72.97;101089.56;5041160;28;20067;-76
2022/08/23 01:38:49;;;;;;;9.35;2.90;;;;;;;18.76;72.89;101091.56;5052007;28;20020;-76
2022/08/23 01:41:15;;;;;;;5.88;2.72;;;;;;;18.75;72.83;101093.41;5046255;28;20039;-77
2022/08/23 01:43:40;;;;;;;7.65;2.80;;;;;;;18.79;73.15;101099.06;5062205;28;20049;-77
2022/08/23 01:46:17;;;;;;;6.05;2.50;;;;;;;18.80;72.98;101098.06;5066377;28;20581;-77
2022/08/23 01:48:48;;;;;;;4.85;2.42;;;;;;;18.77;72.99;101090.59;5043012;28;20494;-75
2022/08/23 01:51:18;;;;;;;9.00;3.42;;;;;;;18.74;73.12;101097.06;5061179;28;20194;-77
2022/08/23 01:53:45;;;;;;;4.57;2.15;;;;;;;18.73;73.45;101095.44;5042487;28;20032;-76
2022/08/23 01:56:13;;;;;;;6.25;2.50;;;;;;;18.71;72.84;101097.44;5063816;28;20031;-77
2022/08/23 01:58:39;;;;;;;5.32;2.72;;;;;;;18.69;73.15;101091.59;5057508;28;20090;-77
2022/08/23 02:01:05;;;;;;;5.97;2.50;;;;;;;18.66;73.21;101098.03;5062926;28;20060;-76
2022/08/23 02:03:32;;;;;;;7.15;2.88;;;;;;;18.64;73.62;101091.38;5048132;28;20036;-76
2022/08/23 02:05:58;;;;;;;6.00;2.42;;;;;;;18.59;74.12;101099.06;5065451;28;20036;-77
2022/08/23 02:11:13;;;;;;;7.75;2.38;;;;;;;18.19;75.13;101101.63;5065386;28;20024;-77
2022/08/23 02:13:41;;;;;;;5.88;2.47;;;;;;;18.00;76.21;101103.22;5060934;28;20032;-77
2022/08/23 02:16:09;;;;;;;4.15;2.28;;;;;;;17.87;76.86;101099.53;5050547;28;20576;-77
2022/08/23 02:18:34;;;;;;;4.80;2.53;;;;;;;17.85;77.01;101103.38;5062622;28;20039;-77
2022/08/23 02:21:00;;;;;;;8.95;2.75;;;;;;;17.88;77.02;101100.34;5057701;28;20024;-77
2022/08/23 02:23:26;;;;;;;8.02;2.88;;;;;;;17.95;76.46;101103.81;5047897;28;20034;-76
2022/08/23 02:25:53;;;;;;;7.00;2.80;;;;;;;18.00;76.35;101109.25;5048568;28;20024;-77
2022/08/23 02:28:23;;;;;;;5.85;2.45;;;;;;;18.04;76.09;101102.59;5040936;28;20043;-78
2022/08/23 02:30:49;;;;;;;5.90;2.38;;;;;;;18.07;75.92;101104.03;5060637;28;20054;-77
2022/08/23 02:33:15;;;;;;;5.07;2.85;;;;;;;18.07;75.97;101107.47;5061519;28;20025;-77
2022/08/23 02:35:41;;;;;;;5.13;2.22;;;;;;;18.07;76.04;101107.47;5061427;28;20413;-77
2022/08/23 02:38:10;;;;;;;6.78;2.80;;;;;;;18.07;75.86;101112.72;5049186;28;20032;-76
2022/08/23 02:40:36;;;;;;;6.22;2.88;;;;;;;18.06;75.62;101111.13;5069666;28;20021;-76
2022/08/23 02:43:05;;;;;;;8.05;2.85;;;;;;;18.04;75.58;101120.16;5050220;28;20033;-77
2022/08/23 02:45:31;;;;;;;5.18;2.80;;;;;;;17.96;76.00;101115.91;5064428;28;20033;-75
2022/08/23 02:47:58;;;;;;;6.07;2.65;;;;;;;17.95;75.72;101121.34;5065878;28;20033;-77
2022/08/23 02:50:29;;;;;;;5.82;2.70;;;;;;;17.91;76.03;101123.56;5061621;28;20359;-76
2022/08/23 02:52:57;;;;;;;4.57;2.58;;;;;;;17.90;76.05;101127.19;5064333;28;20067;-76
2022/08/23 02:55:23;;;;;;;5.43;2.47;;;;;;;17.89;76.12;101122.94;5050640;28;20020;-76
2022/08/23 02:57:48;;;;;;;4.70;2.95;;;;;;;17.86;76.45;101123.34;5065086;28;20039;-76
2022/08/23 03:00:16;;;;;;;6.53;3.10;;;;;;;17.80;77.09;101124.09;5063792;28;20528;-76
2022/08/23 03:02:42;;;;;;;4.70;2.88;;;;;;;17.74;77.33;101122.25;5067393;28;20058;-76
2022/08/23 03:05:11;;;;;;;9.70;3.13;;;;;;;17.69;77.50;101115.78;5067525;28;20218;-76
2022/08/23 03:07:37;;;;;;;6.15;2.70;;;;;;;17.68;77.32;101114.16;5069219;28;20151;-76
2022/08/23 03:10:05;;;;;;;4.85;2.40;;;;;;;17.71;77.25;101120.84;5065783;28;20031;-77
2022/08/23 03:12:35;;;;;;;8.07;3.17;;;;;;;17.62;77.60;101117.56;5061638;28;20107;-76
2022/08/23 03:15:01;;;;;;;4.90;2.40;;;;;;;17.55;78.19;101118.53;5062446;28;20115;-77
2022/08/23 03:17:28;;;;;;;4.82;2.72;;;;;;;17.51;78.11;101118.13;5049663;28;20402;-76
2022/08/23 03:19:54;;;;;;;4.72;2.40;;;;;;;17.49;78.64;101107.81;5066216;28;20025;-77
2022/08/23 03:22:22;;;;;;;5.57;2.50;;;;;;;17.48;78.79;101118.53;5065906;28;20058;-77
2022/08/23 03:24:48;;;;;;;6.75;2.97;;;;;;;17.33;79.26;101126.50;5064194;28;20443;-76
2022/08/23 03:27:14;;;;;;;5.93;3.78;;;;;;;17.16;79.83;101119.91;5048607;28;20028;-77
2022/08/23 03:29:41;;;;;;;8.52;3.08;;;;;;;17.02;80.33;101121.66;5065560;28;20032;-76
2022/08/23 03:32:07;;;;;;;8.80;3.17;;;;;;;16.87;80.52;101124.34;5064201;28;20032;-76
2022/08/23 03:34:35;;;;;;;6.57;2.88;;;;;;;16.78;81.38;101128.88;5066295;28;20051;-76
2022/08/23 03:37:01;;;;;;;9.13;3.03;;;;;;;16.79;81.53;101119.22;5047289;28;20025;-75
2022/08/23 03:39:27;;;;;;;5.40;2.95;;;;;;;16.80;81.62;101132.13;5061190;28;20044;-76
2022/08/23 03:41:54;;;;;;;8.30;3.22;;;;;;;16.85;81.71;101135.00;5066022;28;20505;-77
2022/08/23 03:44:20;;;;;;;5.00;2.75;;;;;;;16.84;81.74;101130.78;5067500;28;20119;-76
2022/08/23 03:46:46;;;;;;;7.30;2.92;;;;;;;16.82;81.79;101143.25;5065824;28;20524;-75
2022/08/23 03:49:12;;;;;;;7.15;3.22;;;;;;;16.72;81.99;101145.34;5079872;28;20037;-79
2022/08/23 03:51:51;;;;;;;9.02;3.08;;;;;;;16.64;82.53;101142.88;5061565;28;20106;-77
2022/08/23 03:54:16;;;;;;;7.13;3.25;;;;;;;16.67;82.49;101145.91;5077522;28;20509;-78
2022/08/23 03:56:59;;;;;;;5.10;3.10;;;;;;;16.70;82.14;101142.91;5044517;28;20104;-76
2022/08/23 03:59:26;;;;;;;6.23;3.30;;;;;;;16.71;82.30;101152.41;5079264;28;20075;-76
2022/08/23 04:01:53;;;;;;;8.77;2.90;;;;;;;16.72;82.38;101154.00;5066221;28;20501;-76
2022/08/23 04:04:19;;;;;;;7.10;3.28;;;;;;;16.76;81.92;101156.25;5047875;28;20114;-77
2022/08/23 04:07:04;;;;;;;8.38;2.80;;;;;;;16.78;81.76;101155.06;5061302;28;20052;-76
2022/08/23 04:09:30;;;;;;;4.78;2.92;;;;;;;16.81;81.69;101157.31;5050257;28;20033;-76
2022/08/23 04:11:56;;;;;;;6.63;3.30;;;;;;;16.83;81.53;101154.53;5066105;28;20062;-77
2022/08/23 04:14:23;;;;;;;6.45;3.10;;;;;;;16.84;81.25;101154.34;5061647;28;20044;-76
2022/08/23 04:16:49;;;;;;;6.43;3.20;;;;;;;16.82;81.56;101164.22;5048473;28;20040;-76
2022/08/23 04:19:15;;;;;;;10.45;3.50;;;;;;;16.69;82.11;101164.06;5045741;28;20196;-77
2022/08/23 04:21:56;;;;;;;8.13;3.20;;;;;;;16.52;82.68;101163.50;5046461;28;20048;-77
2022/08/23 04:24:24;;;;;;;7.90;3.63;;;;;;;16.40;83.31;101171.00;5066682;28;20033;-76
2022/08/23 04:26:49;;;;;;;7.38;3.45;;;;;;;16.38;83.90;101170.38;5067569;28;20028;-77
2022/08/23 04:29:16;;;;;;;9.95;3.40;;;;;;;16.41;83.74;101171.84;5066195;28;20102;-77
2022/08/23 04:31:46;;;;;;;12.48;4.70;;;;;;;16.47;83.31;101179.75;5069236;28;20279;-76
2022/08/23 04:34:12;;;;;;;7.63;3.92;;;;;;;16.51;83.17;101177.56;5040852;28;20418;-75
2022/08/23 04:36:40;;;;;;;6.72;3.65;;;;;;;16.55;82.93;101186.66;5046519;28;20035;-75
2022/08/23 04:39:09;;;;;;;13.13;4.90;;;;;;;16.58;82.94;101180.28;5048082;28;20124;-76
2022/08/23 04:44:20;;;;;;;6.30;3.50;;;;;;;16.58;83.32;101194.16;5062627;28;20541;-76
2022/08/23 04:46:47;;;;;;;9.13;3.85;;;;;;;16.54;83.39;101192.91;5067232;28;20118;-80
2022/08/23 04:49:15;;;;;;;8.48;3.90;;;;;;;16.44;84.12;101198.44;5064572;28;20498;-76
2022/08/23 04:51:40;;;;;;;6.60;3.50;;;;;;;16.32;84.28;101192.88;5047431;28;20060;-78
2022/08/23 04:54:06;;;;;;;7.80;3.50;;;;;;;16.20;85.02;101204.81;5064995;28;20060;-76
2022/08/23 04:56:38;;;;;;;9.57;4.47;;;;;;;16.16;85.47;101200.94;5062851;28;20380;-76
2022/08/23 04:59:05;;;;;;;6.80;3.90;;;;;;;16.17;85.52;101207.00;5060377;28;20483;-76
2022/08/23 05:01:32;;;;;;;9.93;3.80;;;;;;;16.19;85.83;101210.22;5050225;28;20032;-76
2022/08/23 05:03:59;;;;;;;7.00;4.18;;;;;;;16.20;86.10;101201.38;5064307;28;20115;-76
2022/08/23 05:06:27;;;;;;;7.75;3.63;;;;;;;16.19;86.15;101207.63;5064553;28;20037;-76
2022/08/23 05:08:56;;;;;;;6.80;3.95;;;;;;;16.17;86.88;101212.22;5041785;28;20116;-76
2022/08/23 05:11:22;;;;;;;8.60;4.13;;;;;;;16.15;87.15;101210.59;5065781;28;20674;-76
2022/08/23 05:13:48;;;;;;;7.15;4.03;;;;;;;16.18;87.27;101216.44;5059157;28;20036;-77
2022/08/23 05:16:14;;;;;;;7.95;4.07;;;;;;;16.18;87.38;101213.81;5064984;28;20115;-77
2022/08/23 05:18:48;;;;;;;8.82;3.88;;;;;;;16.19;87.54;101212.84;5059671;28;20585;-77
2022/08/23 05:21:16;;;;;;;7.10;4.35;;;;;;;16.21;87.39;101216.09;5060346;28;20043;-77
2022/08/23 05:23:43;;;;;;;10.43;4.05;;;;;;;16.23;87.48;101221.94;5050546;28;20368;-77
2022/08/23 05:26:15;;;;;;;7.20;3.85;;;;;;;16.25;87.42;101217.34;5067428;28;20028;-76
2022/08/23 05:28:44;;;;;;;7.15;4.30;;;;;;;16.30;87.34;101220.22;5061512;28;20090;-76
2022/08/23 05:31:19;;;;;;;7.70;4.90;;;;;;;16.36;87.13;101224.72;5048186;28;20339;-79
2022/08/23 05:33:50;;;;;;;10.23;4.65;;;;;;;16.42;86.79;101228.41;5066948;28;20025;-76
2022/08/23 05:36:25;;;;;;;10.27;5.82;;;;;;;16.45;87.07;101236.69;5062832;28;20027;-78
2022/08/23 05:38:52;;;;;;;7.25;4.45;;;;;;;16.49;87.35;101237.16;5066296;28;20063;-76
2022/08/23 05:41:20;;;;;;;7.82;4.32;;;;;;;16.54;87.27;101238.22;5057860;28;20434;-76
2022/08/23 05:43:47;;;;;;;8.05;3.75;;;;;;;16.60;86.76;101239.28;5047246;28;20135;-77
2022/08/23 05:46:17;;;;;;;11.25;4.13;;;;;;;16.69;86.50;101247.84;5067891;28;20024;-76
2022/08/23 05:48:49;;;;;;;7.07;4.18;;;;;;;16.76;86.79;101242.66;5055839;28;20043;-75
2022/08/23 05:51:24;;;;;;;7.97;4.05;;;;;;;16.83;86.17;101248.81;5062859;28;20506;-76
2022/08/23 05:53:52;;;;;;;8.07;3.90;;;;;;;16.89;85.92;101248.06;5066334;28;20028;-77
2022/08/23 05:56:27;;;;;;;9.57;4.80;;;;;;;16.95;86.09;101249.94;5065152;28;20097;-77
2022/08/23 05:58:56;;;;;;;11.13;5.28;;;;;;;17.00;85.87;101249.38;5066678;28;20360;-77
2022/08/23 06:01:22;;;;;;;9.90;4.63;;;;;;;17.05;85.31;101247.00;5061725;28;20038;-76
2022/08/23 06:03:52;;;;;;;8.10;4.30;;;;;;;17.13;85.40;101237.19;5062766;28;20037;-76
2022/08/23 06:06:19;;;;;;;12.80;5.82;;;;;;;17.33;84.81;101249.69;5050440;28;20032;-76
2022/08/23 06:08:47;;;;;;;8.85;4.85;;;;;;;17.64;84.19;101246.66;5059659;28;20025;-76
2022/08/23 06:11:18;;;;;;;9.85;4.55;;;;;;;17.85;83.76;101252.88;5045266;28;20016;-76
2022/08/23 06:13:47;;;;;;;11.60;5.50;;;;;;;18.04;83.04;101251.34;5057900;28;20024;-78
2022/08/23 06:16:14;;;;;;;9.80;5.72;;;;;;;18.22;83.41;101251.66;5059085;28;20052;-77
2022/08/23 06:18:40;;;;;;;12.88;5.72;;;;;;;18.28;82.56;101256.09;5065396;28;20043;-77
2022/08/23 06:21:29;;;;;;;8.13;5.32;;;;;;;18.26;81.83;101255.50;5036046;28;20044;-76
2022/08/23 06:23:55;;;;;;;9.75;5.65;;;;;;;18.22;81.06;101256.91;5085203;22;20404;-76
2022/08/23 06:26:33;;;;;;;17.17;7.40;;;;;;;18.20;81.24;101258.91;5070602;28;20033;-76
2022/08/23 06:29:07;;;;;;;10.77;6.60;;;;;;;18.20;80.30;101260.72;5057396;28;20049;-76
2022/08/23 06:31:44;;;;;;;13.15;6.18;;;;;;;18.22;80.84;101263.97;5055843;28;20048;-76
2022/08/23 06:34:31;;;;;;;14.45;5.82;;;;;;;18.27;81.09;101272.88;5055968;28;20638;-76
2022/08/23 06:37:15;;;;;;;19.40;7.55;;;;;;;18.37;80.89;101271.72;5060548;28;20631;-76
2022/08/23 06:40:14;;;;;;;16.48;6.00;;;;;;;18.54;79.63;101272.16;5079489;22;21397;-74
2022/08/23 06:42:49;;;;;;;14.05;6.57;;;;;;;18.78;77.43;101268.16;5041040;28;20032;-74
2022/08/23 06:45:20;;;;;;;18.83;6.35;;;;;;;18.92;76.75;101264.59;5034481;28;20029;-74
2022/08/23 06:47:49;;;;;;;13.73;6.80;;;;;;;19.00;77.15;101263.59;5037368;28;20327;-74
2022/08/23 06:50:14;;;;;;;9.18;4.97;;;;;;;19.04;76.63;101267.44;5053338;28;20124;-74
2022/08/23 06:52:59;;;;;;;12.25;4.88;;;;;;;19.14;76.13;101262.59;5042008;28;20363;-74
2022/08/23 06:55:37;;;;;;;11.27;4.72;;;;;;;19.33;75.54;101270.72;5024979;28;20635;-74
2022/08/23 06:58:26;;;;;;;13.57;5.53;;;;;;;19.54;74.79;101274.94;5031317;28;20072;-74
2022/08/23 07:01:20;;;;;;;8.88;3.95;;;;;;;19.70;74.18;101271.88;5037991;28;20067;-74
2022/08/23 07:04:08;;;;;;;14.38;5.30;;;;;;;19.90;74.02;101263.97;5020426;28;20036;-74
2022/08/23 07:06:49;;;;;;;;;;;;;;;20.10;73.04;101271.00;5053917;28;20041;-74
2022/08/23 07:09:17;;;;;;;12.88;4.85;;;;;;;20.29;72.14;101272.75;5024340;28;21592;-74
2022/08/23 07:11:44;;;;;;;16.52;5.25;;;;;;;20.41;70.15;101278.97;5022734;28;20501;-74
2022/08/23 07:14:13;;;;;;;11.70;4.22;;;;;;;20.57;70.13;101269.00;5055518;28;20486;-74
2022/08/23 07:16:50;;;;;;;14.50;5.25;;;;;;;20.77;68.25;101274.97;5048800;28;20376;-74
2022/08/23 07:19:18;;;;;;;13.50;4.22;;;;;;;21.10;67.61;101271.31;5016317;28;20438;-74
2022/08/23 07:21:44;;;;;;;8.95;3.97;;;;;;;21.61;66.74;101271.31;5022364;28;20028;-74
2022/08/23 07:24:12;;;;;;;12.07;4.32;;;;;;;22.78;63.40;101270.34;5023307;28;20134;-74
2022/08/23 07:26:44;;;;;;;8.55;4.40;;;;;;;23.23;61.88;101269.88;5042260;28;20465;-75
2022/08/23 07:29:12;;;;;;;20.45;5.93;;;;;;;23.74;58.10;101264.91;5026064;28;20040;-74
2022/08/23 07:31:51;;;;;;;15.93;4.72;;;;;;;24.15;57.52;101271.88;5039536;28;20576;-74
2022/08/23 07:34:23;;;;;;;13.63;4.72;;;;;;;24.87;53.60;101262.59;5023526;28;20524;-74
2022/08/23 07:36:51;;;;;;;;;;;;;;;25.39;52.21;101265.00;5055293;28;20017;-74
2022/08/23 07:39:17;;;;;;;21.25;5.47;;;;;;;25.77;50.62;101254.63;5017566;28;19985;-74
2022/08/23 07:41:46;;;;;;;14.50;5.63;;;;;;;25.76;48.78;101269.72;5027454;28;20040;-75
2022/08/23 07:44:13;;;;;;;17.80;5.65;;;;;;;26.16;47.57;101260.69;5033584;28;20131;-75
2022/08/23 07:46:43;;;;;;;13.10;5.82;;;;;;;26.46;47.38;101264.69;5058289;28;20549;-75
2022/08/23 07:49:15;;;;;;;13.07;5.15;;;;;;;26.67;47.59;101264.91;5037418;28;20033;-74
2022/08/23 07:51:49;;;;;;;12.38;4.55;;;;;;;26.96;47.29;101274.22;5044486;28;20059;-74
2022/08/23 07:54:17;;;;;;;17.45;4.72;;;;;;;27.28;46.96;101269.94;5042209;28;20028;-74
2022/08/23 07:57:00;;;;;;;16.75;5.68;;;;;;;27.46;46.79;101274.81;5031727;28;20025;-74
2022/08/23 07:59:44;;;;;;;13.43;4.82;;;;;;;27.65;45.56;101279.72;5056583;28;20067;-75
2022/08/23 08:02:26;;;;;;;11.00;3.58;;;;;;;27.84;43.99;101274.75;5039286;28;20592;-76
2022/08/23 08:04:52;;;;;;;13.93;5.35;;;;;;;27.83;44.35;101281.94;5023474;28;20630;-75
2022/08/23 08:07:20;;;;;;;10.90;4.03;;;;;;;27.85;44.61;101282.47;5037185;28;20095;-74
2022/08/23 08:09:49;;;;;;;18.15;4.80;;;;;;;27.76;44.40;101287.53;5026151;28;20024;-75
2022/08/23 08:12:15;;;;;;;11.10;4.82;;;;;;;28.00;45.16;101287.09;5023898;28;20064;-75
2022/08/23 08:14:41;;;;;;;11.00;4.55;;;;;;;27.80;44.39;101290.44;5025618;28;20486;-75
2022/08/23 08:17:13;;;;;;;14.88;4.90;;;;;;;27.79;44.74;101296.06;5038757;28;20039;-75
2022/08/23 08:20:09;;;;;;;13.25;4.50;;;;;;;27.99;44.33;101292.69;5034942;28;20037;-75
2022/08/23 08:22:37;;;;;;;13.65;4.65;;;;;;;28.44;43.93;101286.66;5041227;28;22444;-74
2022/08/23 08:25:05;;;;;;;12.77;4.28;;;;;;;28.66;43.74;101288.34;5038336;28;20064;-75
2022/08/23 08:27:31;;;;;;;10.77;4.00;;;;;;;29.00;42.53;101288.59;5035382;28;20274;-75
2022/08/23 08:29:57;;;;;;;14.43;4.65;;;;;;;29.19;41.54;101290.75;5021941;28;20036;-75
2022/08/23 08:32:23;;;;;;;15.05;4.40;;;;;;;29.53;41.21;101287.47;5037473;28;20090;-75
2022/08/23 08:34:49;;;;;;;18.77;4.97;;;;;;;28.99;41.84;101288.84;5040791;28;20042;-75
2022/08/23 08:37:14;;;;;;;13.00;4.38;;;;;;;29.39;40.98;101293.38;5020928;28;20395;-76
2022/08/23 08:39:46;;;;;;;14.73;4.72;;;;;;;29.05;41.57;101285.94;5040402;28;20496;-75
2022/08/23 08:42:32;;;;;;;16.63;4.20;;;;;;;28.82;42.44;101289.13;5039124;28;20111;-75
2022/08/23 08:45:08;;;;;;;11.40;4.18;;;;;;;29.37;41.76;101286.72;5038965;28;20533;-75
2022/08/23 08:48:12;;;;;;;15.65;5.35;;;;;;;29.63;40.84;101287.44;5022376;28;20036;-75
2022/08/23 08:51:00;;;;;;;14.73;4.47;;;;;;;29.63;40.70;101282.06;5041841;28;20491;-75
2022/08/23 08:53:42;;;;;;;10.85;4.32;;;;;;;30.08;40.64;101277.63;5053017;28;20070;-75
2022/08/23 08:56:23;;;;;;;19.52;5.72;;;;;;;29.47;40.67;101286.69;5047992;28;20151;-75
2022/08/23 08:59:52;;;;;;;11.15;3.70;;;;;;;30.00;40.38;101287.03;5040405;28;20071;-75
2022/08/23 09:02:21;;;;;;;17.47;3.97;;;;;;;30.18;40.91;101287.50;5025553;28;20029;-75
2022/08/23 09:04:50;;;;;;;15.45;4.50;;;;;;;30.36;39.92;101286.06;5042932;28;20042;-75
2022/08/23 09:07:46;;;;;;;11.07;4.35;;;;;;;30.53;39.35;101291.03;5037956;28;20028;-75
2022/08/23 09:10:44;;;;;;;11.30;4.75;;;;;;;30.51;39.30;101288.63;5028070;28;20037;-75
2022/08/23 09:13:25;;;;;;;15.75;4.10;;;;;;;30.66;38.70;101290.41;5040287;28;20048;-75
2022/08/23 09:16:24;;;;;;;9.52;2.67;;;;;;;30.92;39.89;101290.22;5037831;28;20390;-75
2022/08/23 09:18:53;;;;;;;11.13;4.38;;;;;;;30.76;39.62;101287.66;5038085;28;20028;-75
2022/08/23 09:21:20;;;;;;;10.35;3.85;;;;;;;30.73;38.87;101287.41;5019589;28;20024;-75
2022/08/23 09:23:48;;;;;;;16.80;4.35;;;;;;;30.75;38.73;101287.94;5022147;28;20037;-74
2022/08/23 09:26:25;;;;;;;11.35;4.20;;;;;;;30.69;38.78;101281.03;5032188;28;20032;-75
2022/08/23 09:29:03;;;;;;;9.90;3.90;;;;;;;30.75;38.60;101291.41;5039989;28;20028;-75
2022/08/23 09:31:44;;;;;;;16.38;3.92;;;;;;;30.70;39.63;101287.97;5038492;28;20037;-75
2022/08/23 09:34:21;;;;;;;10.63;3.97;;;;;;;31.12;38.33;101292.72;5042131;28;20520;-75
2022/08/23 09:37:11;;;;;;;12.40;3.83;;;;;;;30.47;38.47;101288.38;5035402;28;20032;-74
2022/08/23 09:39:40;;;;;;;13.38;4.15;;;;;;;30.28;38.57;101298.13;5045116;28;20567;-74
2022/08/23 09:42:29;;;;;;;10.43;3.47;;;;;;;30.32;38.10;101293.03;5034090;28;20042;-74
2022/08/23 09:44:55;;;;;;;14.32;4.25;;;;;;;30.07;39.63;101290.22;5050347;28;20021;-75
2022/08/23 09:47:33;;;;;;;14.27;4.78;;;;;;;30.52;38.24;101284.88;5044374;28;20253;-75
2022/08/23 09:50:14;;;;;;;13.27;4.07;;;;;;;30.20;38.39;101285.34;5052779;28;20037;-75
2022/08/23 09:52:46;;;;;;;11.35;3.92;;;;;;;30.03;40.57;101293.72;5042475;28;20048;-74
2022/08/23 09:55:30;;;;;;;9.93;3.60;;;;;;;30.09;39.88;101279.25;5036525;28;20073;-75
2022/08/23 09:57:58;;;;;;;13.80;4.07;;;;;;;30.23;39.00;101271.41;5042932;28;20037;-75
2022/08/23 10:00:29;;;;;;;9.57;3.28;;;;;;;30.37;40.32;101277.78;5023864;28;20566;-75
2022/08/23 10:03:27;;;;;;;10.60;3.05;;;;;;;30.56;39.08;101287.81;5021650;28;20040;-74
2022/08/23 10:06:28;;;;;;;13.38;2.42;;;;;;;30.56;38.60;101282.47;5055069;28;20491;-74
2022/08/23 10:08:59;;;;;;;8.77;2.75;;;;;;;30.96;38.03;101272.50;5041807;28;20067;-74
2022/08/23 10:11:29;;;;;;;11.63;3.08;;;;;;;30.87;38.65;101274.97;5037007;28;20517;-74
2022/08/23 10:13:56;;;;;;;12.57;2.97;;;;;;;30.82;38.27;101261.66;5025202;28;20028;-74
2022/08/23 10:16:25;;;;;;;9.80;2.70;;;;;;;31.01;37.75;101267.13;5024348;28;20540;-74
2022/08/23 10:19:37;;;;;;;7.53;3.15;;;;;;;30.95;37.86;101271.72;5054202;28;20089;-74
2022/08/23 10:22:18;;;;;;;10.77;3.13;;;;;;;30.94;37.73;101266.66;5038310;28;20106;-75
2022/08/23 10:25:11;;;;;;;9.23;3.40;;;;;;;30.89;37.11;101263.97;5036034;28;20025;-74
2022/08/23 10:30:55;;;;;;;9.80;3.30;;;;;;;30.88;36.33;101260.50;5031714;28;20115;-75
2022/08/23 10:33:44;;;;;;;8.65;2.40;;;;;;;30.88;36.94;101260.50;5037928;28;20029;-74
2022/08/23 10:36:17;;;;;;;19.75;3.33;;;;;;;30.49;37.86;101260.56;4989129;28;20045;-74
2022/08/23 10:39:05;;;;;;;6.40;2.13;;;;;;;30.32;36.95;101260.94;5032777;28;20671;-74
2022/08/23 10:42:01;;;;;;;7.68;2.25;;;;;;;30.39;37.38;101259.56;5036687;28;20037;-74
2022/08/23 10:44:46;;;;;;;9.05;2.15;;;;;;;30.61;36.55;101261.00;5042461;28;20044;-74
2022/08/23 10:47:22;;;;;;;9.00;2.45;;;;;;;30.78;37.08;101261.41;5040357;28;20438;-73
2022/08/23 10:49:53;;;;;;;6.97;2.10;;;;;;;30.97;37.52;101258.84;5024480;28;20648;-74
2022/08/23 10:52:31;;;;;;;9.82;3.28;;;;;;;30.65;36.66;101262.06;5022405;28;20507;-74
2022/08/23 10:55:15;;;;;;;4.88;2.47;;;;;;;30.62;36.52;101259.94;5036697;28;20086;-74
2022/08/23 10:57:45;;;;;;;4.47;2.15;;;;;;;30.24;36.00;101263.09;5022110;28;20024;-74
2022/08/23 11:00:20;;;;;;;7.85;2.22;;;;;;;30.58;35.94;101253.53;5029856;28;20058;-74
2022/08/23 11:03:13;;;;;;;6.45;2.28;;;;;;;30.66;35.71;101247.59;5028539;28;20402;-74
2022/08/23 11:05:42;;;;;;;5.93;2.50;;;;;;;30.90;36.05;101249.53;5040359;28;20048;-73
2022/08/23 11:08:42;;;;;;;4.90;2.35;;;;;;;30.73;36.04;101241.94;5039993;28;20562;-74
2022/08/23 11:11:49;;;;;;;11.48;2.33;;;;;;;30.94;36.22;101250.59;5040917;28;20562;-74
2022/08/23 11:14:40;;;;;;;6.13;2.30;;;;;;;30.93;36.48;101247.13;5039751;28;20043;-74
2022/08/23 11:17:11;;;;;;;5.90;2.13;;;;;;;31.26;36.56;101241.94;5042903;28;20468;-74
2022/08/23 11:19:54;;;;;;;5.57;2.15;;;;;;;31.15;35.06;101240.47;5027097;28;20123;-74
2022/08/23 11:22:26;;;;;;;7.70;2.20;;;;;;;31.23;36.43;101254.03;5022515;28;20426;-74
2022/08/23 11:25:25;;;;;;;4.78;2.08;;;;;;;31.55;36.27;101243.78;5041166;28;20043;-74
2022/08/23 11:28:23;;;;;;;4.35;2.22;;;;;;;31.38;35.66;101244.22;5012636;28;20109;-74
2022/08/23 11:31:16;;;;;;;4.35;1.85;;;;;;;31.39;35.60;101241.25;5025217;28;20114;-74
2022/08/23 11:34:09;;;;;;;8.02;1.80;;;;;;;31.49;35.81;101239.56;5040046;28;20405;-74
2022/08/23 11:36:36;;;;;;;7.22;2.58;;;;;;;31.31;34.92;101241.13;5012188;28;20059;-75
2022/08/23 11:39:09;;;;;;;8.32;1.98;;;;;;;31.48;34.70;101238.00;5025849;28;20060;-75
2022/08/23 11:41:53;;;;;;;3.92;1.45;;;;;;;31.61;34.33;101240.78;5039599;28;20118;-74
2022/08/23 11:44:31;;;;;;;5.10;1.95;;;;;;;31.00;36.29;101244.09;5032919;28;20037;-74
2022/08/23 11:47:05;;;;;;;4.70;2.10;;;;;;;30.60;36.00;101249.50;5026303;28;20529;-74
2022/08/23 11:50:04;;;;;;;5.03;1.83;;;;;;;30.96;35.75;101241.19;5026889;28;20036;-74
2022/08/23 11:53:18;;;;;;;6.03;1.70;;;;;;;31.51;35.46;101237.41;5058762;28;20274;-75
2022/08/23 11:55:58;;;;;;;3.53;1.50;;;;;;;31.67;35.29;101244.19;5003302;28;20052;-74
2022/08/23 11:58:33;;;;;;;5.28;2.03;;;;;;;31.65;36.06;101234.81;5017490;28;20043;-74
2022/08/23 12:01:07;;;;;;;8.18;1.98;;;;;;;31.71;34.68;101231.78;5055852;28;20043;-74
2022/08/23 12:03:43;;;;;;;5.55;2.60;;;;;;;31.72;35.89;101241.44;5057870;28;20102;-74
2022/08/23 12:06:17;;;;;;;8.85;1.70;;;;;;;31.81;35.33;101234.31;5024665;28;20032;-75